createdAt,value
2023-03-19T00:00:47.102Z,70.40
2023-03-19T00:03:14.238Z,70.70
2023-03-19T00:05:41.813Z,70.80
2023-03-19T00:08:08.915Z,71.10
2023-03-19T00:10:39.899Z,71.40
2023-03-19T00:13:07.196Z,71.70
2023-03-19T00:15:34.591Z,71.70
2023-03-19T00:18:02.186Z,72.00
2023-03-19T00:20:29.378Z,72.10
2023-03-19T00:22:56.657Z,72.70
2023-03-19T00:25:23.823Z,72.70
2023-03-19T00:27:52.788Z,73.20
2023-03-19T00:30:19.987Z,73.20
2023-03-19T00:32:48.280Z,73.40
2023-03-19T00:35:16.266Z,74.10
2023-03-19T00:37:43.395Z,73.70
2023-03-19T00:40:11.848Z,74.10
2023-03-19T00:42:39.475Z,74.60
2023-03-19T00:45:07.664Z,74.70
2023-03-19T00:47:35.016Z,74.80
2023-03-19T00:50:03.414Z,74.90
2023-03-19T00:52:30.727Z,74.90
2023-03-19T00:54:57.868Z,75.00
2023-03-19T00:57:25.304Z,75.10
2023-03-19T00:59:52.537Z,75.20
2023-03-19T01:02:19.703Z,75.60
2023-03-19T01:04:49.420Z,75.50
2023-03-19T01:07:16.785Z,75.60
2023-03-19T01:09:44.079Z,75.50
2023-03-19T01:12:11.257Z,75.60
2023-03-19T01:14:38.431Z,75.60
2023-03-19T01:17:05.694Z,75.70
2023-03-19T01:19:33.180Z,75.80
2023-03-19T01:22:00.314Z,75.70
2023-03-19T01:24:31.242Z,76.10
2023-03-19T01:26:58.824Z,76.50
2023-03-19T01:29:26.167Z,77.00
2023-03-19T01:31:53.280Z,77.10
2023-03-19T01:34:21.089Z,77.60
2023-03-19T01:36:49.110Z,77.90
2023-03-19T01:39:16.337Z,78.50
2023-03-19T01:41:46.858Z,78.90
2023-03-19T01:44:31.645Z,79.30
2023-03-19T01:47:01.930Z,79.90
2023-03-19T01:49:30.693Z,80.40
2023-03-19T01:52:02.873Z,80.90
2023-03-19T01:54:32.566Z,81.60
2023-03-19T01:57:10.185Z,82.30
2023-03-19T01:59:48.989Z,83.10
2023-03-19T02:02:19.454Z,84.00
2023-03-19T02:04:49.331Z,84.60
2023-03-19T02:07:17.557Z,85.60
2023-03-19T02:09:45.600Z,86.20
2023-03-19T02:12:13.735Z,87.00
2023-03-19T02:14:41.172Z,87.60
2023-03-19T02:17:08.634Z,88.20
2023-03-19T02:19:55.228Z,88.70
2023-03-19T02:22:27.611Z,89.30
2023-03-19T02:25:13.317Z,90.00
2023-03-19T02:27:40.748Z,90.30
2023-03-19T02:30:34.565Z,90.60
2023-03-19T02:33:02.153Z,91.20
2023-03-19T02:35:33.925Z,91.60
2023-03-19T02:38:03.453Z,91.80
2023-03-19T02:40:37.198Z,92.10
2023-03-19T02:43:04.440Z,92.60
2023-03-19T02:45:32.273Z,92.90
2023-03-19T02:48:00.537Z,93.50
2023-03-19T02:50:27.756Z,93.60
2023-03-19T02:52:55.052Z,94.00
2023-03-19T02:55:22.288Z,94.30
2023-03-19T02:57:49.455Z,94.80
2023-03-19T03:00:20.894Z,95.00
2023-03-19T03:02:48.121Z,95.60
2023-03-19T03:05:15.428Z,96.10
2023-03-19T03:07:44.979Z,96.30
2023-03-19T03:10:12.626Z,96.70
2023-03-19T03:12:39.814Z,97.10
2023-03-19T03:15:08.613Z,97.20
2023-03-19T03:17:40.775Z,97.70
2023-03-19T03:20:09.593Z,98.00
2023-03-19T03:22:36.932Z,98.30
2023-03-19T03:25:05.013Z,98.60
2023-03-19T03:27:33.075Z,99.00
2023-03-19T03:30:00.940Z,99.30
2023-03-19T03:32:28.061Z,99.80
2023-03-19T03:34:55.192Z,99.90
2023-03-19T03:37:22.716Z,99.90
2023-03-19T03:39:49.881Z,99.90
2023-03-19T03:42:17.433Z,99.90
2023-03-19T03:44:44.631Z,99.90
2023-03-19T03:47:13.187Z,99.90
2023-03-19T03:49:40.595Z,99.90
2023-03-19T03:52:09.111Z,99.90
2023-03-19T03:54:36.255Z,99.90
2023-03-19T03:57:03.820Z,99.90
2023-03-19T03:59:31.188Z,99.90
2023-03-19T04:01:58.580Z,99.90
2023-03-19T04:04:26.615Z,99.90
2023-03-19T04:06:53.944Z,99.90
2023-03-19T04:09:21.074Z,99.90
2023-03-19T04:11:51.366Z,99.90
2023-03-19T04:14:18.888Z,99.90
2023-03-19T04:16:46.751Z,99.90
2023-03-19T04:19:14.465Z,99.90
2023-03-19T04:21:41.786Z,99.90
2023-03-19T04:24:10.578Z,99.90
2023-03-19T04:26:38.663Z,99.90
2023-03-19T04:29:08.790Z,99.90
2023-03-19T04:31:35.867Z,99.90
2023-03-19T04:34:03.112Z,99.90
2023-03-19T04:36:31.013Z,99.90
2023-03-19T04:38:58.157Z,99.90
2023-03-19T04:41:26.267Z,99.90
2023-03-19T04:43:53.369Z,99.90
2023-03-19T04:46:20.525Z,99.90
2023-03-19T04:48:47.694Z,99.90
2023-03-19T04:51:15.069Z,99.90
2023-03-19T04:53:42.654Z,99.90
2023-03-19T04:56:09.837Z,99.90
2023-03-19T04:58:36.988Z,99.90
2023-03-19T05:01:04.261Z,99.90
2023-03-19T05:03:31.805Z,99.90
2023-03-19T05:05:59.064Z,99.90
2023-03-19T05:08:26.677Z,99.90
2023-03-19T05:10:53.794Z,99.90
2023-03-19T05:13:21.767Z,99.90
2023-03-19T05:15:48.981Z,99.90
2023-03-19T05:18:16.686Z,99.90
2023-03-19T05:20:44.432Z,99.90
2023-03-19T05:23:11.751Z,99.90
2023-03-19T05:25:39.261Z,99.90
2023-03-19T05:28:07.569Z,99.90
2023-03-19T05:30:36.174Z,99.90
2023-03-19T05:33:03.875Z,99.90
2023-03-19T05:35:31.942Z,99.90
2023-03-19T05:37:59.186Z,99.90
2023-03-19T05:40:26.648Z,99.90
2023-03-19T05:42:53.901Z,99.90
2023-03-19T05:45:22.183Z,99.90
2023-03-19T05:47:50.255Z,99.90
2023-03-19T05:50:18.958Z,99.90
2023-03-19T05:52:46.103Z,99.90
2023-03-19T05:55:13.481Z,99.90
2023-03-19T05:57:40.619Z,99.90
2023-03-19T06:00:08.733Z,99.90
2023-03-19T06:02:37.342Z,99.90
2023-03-19T06:05:06.340Z,99.90
2023-03-19T06:07:33.450Z,99.90
2023-03-19T06:10:00.530Z,99.90
2023-03-19T06:12:27.677Z,99.90
2023-03-19T06:14:54.953Z,99.90
2023-03-19T06:17:22.429Z,99.90
2023-03-19T06:19:49.727Z,99.90
2023-03-19T06:22:16.838Z,99.90
2023-03-19T06:24:43.951Z,99.90
2023-03-19T06:27:11.285Z,99.90
2023-03-19T06:29:38.377Z,99.90
2023-03-19T06:32:06.032Z,99.90
2023-03-19T06:34:33.254Z,99.90
2023-03-19T06:37:00.589Z,99.90
2023-03-19T06:39:27.948Z,99.90
2023-03-19T06:41:55.060Z,99.90
2023-03-19T06:44:22.240Z,99.90
2023-03-19T06:46:49.371Z,99.90
2023-03-19T06:49:16.748Z,99.90
2023-03-19T06:51:44.026Z,99.90
2023-03-19T06:54:11.152Z,99.90
2023-03-19T06:56:38.299Z,99.90
2023-03-19T06:59:05.483Z,99.90
2023-03-19T07:01:32.910Z,99.90
2023-03-19T07:04:00.150Z,99.90
2023-03-19T07:06:27.379Z,99.90
2023-03-19T07:08:54.931Z,99.90
2023-03-19T07:11:22.045Z,99.90
2023-03-19T07:13:49.166Z,99.90
2023-03-19T07:16:16.362Z,99.90
2023-03-19T07:18:43.511Z,99.90
2023-03-19T07:21:10.719Z,99.90
2023-03-19T07:23:37.903Z,99.90
2023-03-19T07:26:05.768Z,99.90
2023-03-19T07:28:32.894Z,99.90
2023-03-19T07:31:00.243Z,99.90
2023-03-19T07:33:27.432Z,99.90
2023-03-19T07:35:54.591Z,99.90
2023-03-19T07:38:21.702Z,99.90
2023-03-19T07:41:01.362Z,99.90
2023-03-19T07:43:28.882Z,99.90
2023-03-19T07:45:56.073Z,99.90
2023-03-19T07:48:23.260Z,99.90
2023-03-19T07:50:51.672Z,99.90
2023-03-19T07:53:19.297Z,99.90
2023-03-19T07:55:48.398Z,99.90
2023-03-19T07:58:15.903Z,99.90
2023-03-19T08:00:43.094Z,99.90
2023-03-19T08:03:10.184Z,99.80
2023-03-19T08:05:40.181Z,99.80
2023-03-19T08:08:07.391Z,99.40
2023-03-19T08:10:36.637Z,99.30
2023-03-19T08:13:05.441Z,99.20
2023-03-19T08:15:32.946Z,98.40
2023-03-19T08:18:01.407Z,97.90
2023-03-19T08:20:28.560Z,97.50
2023-03-19T08:22:56.709Z,96.70
2023-03-19T08:25:24.438Z,96.30
2023-03-19T08:27:51.623Z,95.90
2023-03-19T08:30:18.888Z,96.20
2023-03-19T08:32:46.107Z,95.40
2023-03-19T08:35:14.248Z,94.80
2023-03-19T08:37:41.331Z,94.70
2023-03-19T08:40:09.842Z,93.90
2023-03-19T08:42:44.380Z,93.50
2023-03-19T08:45:14.660Z,93.40
2023-03-19T08:47:43.278Z,94.50
2023-03-19T08:50:11.890Z,93.80
2023-03-19T08:52:39.307Z,92.60
2023-03-19T08:55:07.638Z,91.90
2023-03-19T08:57:35.982Z,91.40
2023-03-19T09:00:05.803Z,90.50
2023-03-19T09:02:33.255Z,90.10
2023-03-19T09:05:00.336Z,90.20
2023-03-19T09:07:27.520Z,88.50
2023-03-19T09:09:54.671Z,88.00
2023-03-19T09:12:21.745Z,87.60
2023-03-19T09:14:48.897Z,86.20
2023-03-19T09:17:16.118Z,85.10
2023-03-19T09:19:43.241Z,84.80
2023-03-19T09:22:10.463Z,81.90
2023-03-19T09:24:40.150Z,82.10
2023-03-19T09:27:07.950Z,82.10
2023-03-19T09:29:35.241Z,82.90
2023-03-19T09:32:02.395Z,83.90
2023-03-19T09:34:29.621Z,84.20
2023-03-19T09:36:56.757Z,83.30
2023-03-19T09:39:23.958Z,80.30
2023-03-19T09:42:42.194Z,79.20
2023-03-19T09:45:20.506Z,77.00
2023-03-19T09:47:54.156Z,76.70
2023-03-19T09:50:27.087Z,75.90
2023-03-19T09:53:06.727Z,74.20
2023-03-19T09:55:45.695Z,74.00
2023-03-19T09:58:20.398Z,75.50
2023-03-19T10:00:51.290Z,74.80
2023-03-19T10:04:07.255Z,72.00
2023-03-19T10:06:36.903Z,74.20
2023-03-19T10:09:34.380Z,71.40
2023-03-19T10:12:37.442Z,72.20
2023-03-19T10:15:19.855Z,71.70
2023-03-19T10:18:36.766Z,70.20
2023-03-19T10:21:20.135Z,66.80
2023-03-19T10:24:14.581Z,67.20
2023-03-19T10:26:42.034Z,66.90
2023-03-19T10:29:20.693Z,67.40
2023-03-19T10:32:20.665Z,67.50
2023-03-19T10:34:51.019Z,66.20
2023-03-19T10:37:21.336Z,66.10
2023-03-19T10:39:52.204Z,65.50
2023-03-19T10:42:50.904Z,65.70
2023-03-19T10:45:38.618Z,65.20
2023-03-19T10:48:06.659Z,62.80
2023-03-19T10:50:42.928Z,64.30
2023-03-19T10:53:16.097Z,61.80
2023-03-19T10:55:56.032Z,61.70
2023-03-19T10:58:28.188Z,60.70
2023-03-19T11:01:13.074Z,59.40
2023-03-19T11:03:57.778Z,58.60
2023-03-19T11:06:31.608Z,59.10
2023-03-19T11:09:22.681Z,59.80
2023-03-19T11:11:57.774Z,60.30
2023-03-19T11:14:38.475Z,60.10
2023-03-19T11:17:25.808Z,61.30
2023-03-19T11:19:59.455Z,62.00
2023-03-19T11:22:35.722Z,62.20
2023-03-19T11:25:19.570Z,62.20
2023-03-19T11:28:01.165Z,63.40
2023-03-19T11:30:59.131Z,62.70
2023-03-19T11:33:54.787Z,63.80
2023-03-19T11:36:31.197Z,63.80
2023-03-19T11:39:43.347Z,62.40
2023-03-19T11:42:41.058Z,62.90
2023-03-19T11:45:22.225Z,63.70
2023-03-19T11:48:36.219Z,63.80
2023-03-19T11:51:46.869Z,63.90
2023-03-19T11:54:49.809Z,60.90
2023-03-19T11:57:46.394Z,59.30
2023-03-19T12:00:16.986Z,58.30
2023-03-19T12:03:05.227Z,60.80
2023-03-19T12:05:42.600Z,60.80
2023-03-19T12:08:41.765Z,60.40
2023-03-19T12:11:32.205Z,61.50
2023-03-19T12:14:42.648Z,62.00
2023-03-19T12:17:44.824Z,59.40
2023-03-19T12:20:40.518Z,60.60
2023-03-19T12:23:18.841Z,59.90
2023-03-19T12:25:59.680Z,61.10
2023-03-19T12:28:30.151Z,60.60
2023-03-19T12:31:32.185Z,60.30
2023-03-19T12:34:15.054Z,61.70
2023-03-19T12:37:11.663Z,61.40
2023-03-19T12:39:43.466Z,59.50
2023-03-19T12:42:16.473Z,59.60
2023-03-19T12:44:51.252Z,61.30
2023-03-19T12:47:32.783Z,59.70
2023-03-19T12:50:06.121Z,58.40
2023-03-19T12:52:43.934Z,58.40
2023-03-19T12:55:19.929Z,58.70
2023-03-19T12:58:32.551Z,59.00
2023-03-19T13:01:09.261Z,57.80
2023-03-19T13:04:20.815Z,58.40
2023-03-19T13:07:07.464Z,57.90
2023-03-19T13:10:06.900Z,57.80
2023-03-19T13:12:38.264Z,57.20
2023-03-19T13:15:14.656Z,56.40
2023-03-19T13:17:57.280Z,56.70
2023-03-19T13:20:51.666Z,56.10
2023-03-19T13:23:30.047Z,56.20
2023-03-19T13:26:00.535Z,56.20
2023-03-19T13:28:35.336Z,57.20
2023-03-19T13:31:33.776Z,57.20
2023-03-19T13:34:14.843Z,57.40
2023-03-19T13:36:42.438Z,54.80
2023-03-19T13:39:18.706Z,54.70
2023-03-19T13:41:53.753Z,54.40
2023-03-19T13:44:51.575Z,54.90
2023-03-19T13:47:33.780Z,54.50
2023-03-19T13:50:12.851Z,55.60
2023-03-19T13:52:49.233Z,56.20
2023-03-19T13:55:25.815Z,57.10
2023-03-19T13:58:39.501Z,57.20
2023-03-19T14:01:11.736Z,56.70
2023-03-19T14:04:19.008Z,56.50
2023-03-19T14:06:51.186Z,56.90
2023-03-19T14:09:44.524Z,57.70
2023-03-19T14:12:49.593Z,57.50
2023-03-19T14:15:25.281Z,57.00
2023-03-19T14:18:06.260Z,57.00
2023-03-19T14:21:07.100Z,57.40
2023-03-19T14:23:44.137Z,56.50
2023-03-19T14:26:29.501Z,56.20
2023-03-19T14:29:06.023Z,57.00
2023-03-19T14:31:56.494Z,56.60
2023-03-19T14:34:41.787Z,57.30
2023-03-19T14:37:38.713Z,56.90
2023-03-19T14:40:47.589Z,56.90
2023-03-19T14:44:11.968Z,56.90
2023-03-19T14:46:51.004Z,56.10
2023-03-19T14:49:54.604Z,56.20
2023-03-19T14:52:31.468Z,56.20
2023-03-19T14:55:09.969Z,56.90
2023-03-19T14:57:37.916Z,57.60
2023-03-19T15:00:13.580Z,58.00
2023-03-19T15:02:49.406Z,56.20
2023-03-19T15:05:34.526Z,57.70
2023-03-19T15:08:11.760Z,57.60
2023-03-19T15:11:07.493Z,58.00
2023-03-19T15:13:59.954Z,57.80
2023-03-19T15:17:19.872Z,57.70
2023-03-19T15:19:47.341Z,57.10
2023-03-19T15:22:21.036Z,57.80
2023-03-19T15:24:49.545Z,56.60
2023-03-19T15:27:25.645Z,56.60
2023-03-19T15:29:58.147Z,57.20
2023-03-19T15:32:54.418Z,57.90
2023-03-19T15:35:37.348Z,58.00
2023-03-19T15:38:14.632Z,57.10
2023-03-19T15:40:43.221Z,57.40
2023-03-19T15:43:14.519Z,57.90
2023-03-19T15:45:49.503Z,58.00
2023-03-19T15:48:38.957Z,58.00
2023-03-19T15:51:09.354Z,57.70
2023-03-19T15:53:40.850Z,57.90
2023-03-19T15:56:09.001Z,58.40
2023-03-19T15:58:45.677Z,59.00
2023-03-19T16:01:14.732Z,58.70
2023-03-19T16:03:51.206Z,58.50
2023-03-19T16:06:27.298Z,58.60
2023-03-19T16:09:06.717Z,58.60
2023-03-19T16:11:47.089Z,59.00
2023-03-19T16:14:40.354Z,59.80
2023-03-19T16:17:17.932Z,60.10
2023-03-19T16:19:57.072Z,60.80
2023-03-19T16:22:31.257Z,60.70
2023-03-19T16:25:02.063Z,60.50
2023-03-19T16:27:40.058Z,60.80
2023-03-19T16:30:23.540Z,61.20
2023-03-19T16:33:07.360Z,61.90
2023-03-19T16:35:37.311Z,61.80
2023-03-19T16:38:26.316Z,62.40
2023-03-19T16:41:23.507Z,63.00
2023-03-19T16:43:56.881Z,63.40
2023-03-19T16:46:26.733Z,63.40
2023-03-19T16:48:57.080Z,63.50
2023-03-19T16:51:25.486Z,63.70
2023-03-19T16:53:53.741Z,63.90
2023-03-19T16:56:22.963Z,64.00
2023-03-19T16:58:51.474Z,64.30
2023-03-19T17:01:29.749Z,64.90
2023-03-19T17:03:59.671Z,65.30
2023-03-19T17:06:33.058Z,65.40
2023-03-19T17:09:02.488Z,65.60
2023-03-19T17:11:38.867Z,65.70
2023-03-19T17:14:14.129Z,65.80
2023-03-19T17:16:47.606Z,66.10
2023-03-19T17:19:33.069Z,66.80
2023-03-19T17:22:01.969Z,67.10
2023-03-19T17:24:35.824Z,67.40
2023-03-19T17:27:05.393Z,68.00
2023-03-19T17:29:35.460Z,68.50
2023-03-19T17:32:07.189Z,68.80
2023-03-19T17:34:37.467Z,69.20
2023-03-19T17:37:11.460Z,69.60
2023-03-19T17:39:42.263Z,69.80
2023-03-19T17:42:25.789Z,70.20
2023-03-19T17:44:57.467Z,71.00
2023-03-19T17:47:26.327Z,71.20
2023-03-19T17:52:31.750Z,71.70
2023-03-19T17:55:02.186Z,72.40
2023-03-19T17:57:31.244Z,72.70
2023-03-19T18:00:00.145Z,72.70
2023-03-19T18:02:33.822Z,73.00
2023-03-19T18:05:02.895Z,73.70
2023-03-19T18:07:31.738Z,74.30
2023-03-19T18:10:01.773Z,74.90
2023-03-19T18:12:31.914Z,75.10
2023-03-19T18:15:01.546Z,75.30
2023-03-19T18:17:31.597Z,75.50
2023-03-19T18:20:04.934Z,75.80
2023-03-19T18:22:33.738Z,76.10
2023-03-19T18:25:03.647Z,76.40
2023-03-19T18:27:33.833Z,76.50
2023-03-19T18:30:03.222Z,76.80
2023-03-19T18:32:33.291Z,77.10
2023-03-19T18:35:03.328Z,77.20
2023-03-19T18:37:36.223Z,77.50
2023-03-19T18:40:05.301Z,77.90
2023-03-19T18:42:35.836Z,78.10
2023-03-19T18:45:07.402Z,78.50
2023-03-19T18:47:37.651Z,79.20
2023-03-19T18:50:20.939Z,79.90
2023-03-19T18:52:54.623Z,80.50
2023-03-19T18:55:31.539Z,81.00
2023-03-19T18:58:04.125Z,81.10
2023-03-19T19:00:36.536Z,81.40
2023-03-19T19:03:07.591Z,81.90
2023-03-19T19:05:36.947Z,82.40
2023-03-19T19:08:12.837Z,82.90
2023-03-19T19:10:56.023Z,83.20
2023-03-19T19:13:30.978Z,83.50
2023-03-19T19:16:03.289Z,84.10
2023-03-19T19:18:33.577Z,84.50
2023-03-19T19:21:02.637Z,85.00
2023-03-19T19:23:32.118Z,85.60
2023-03-19T19:26:02.223Z,86.10
2023-03-19T19:28:41.384Z,86.50
2023-03-19T19:31:29.027Z,87.00
2023-03-19T19:33:58.128Z,87.50
2023-03-19T19:36:28.879Z,87.90
2023-03-19T19:38:57.147Z,88.30
2023-03-19T19:41:27.115Z,88.90
2023-03-19T19:43:56.512Z,89.80
2023-03-19T19:46:25.218Z,90.30
2023-03-19T19:48:53.864Z,90.70
2023-03-19T19:51:32.777Z,90.80
2023-03-19T19:54:01.264Z,91.20
2023-03-19T19:56:31.730Z,91.50
2023-03-19T19:59:02.397Z,91.90
2023-03-19T20:01:31.805Z,92.20
2023-03-19T20:04:02.092Z,92.60
2023-03-19T20:06:30.406Z,93.00
2023-03-19T20:08:59.197Z,93.30
2023-03-19T20:11:31.253Z,93.60
2023-03-19T20:14:01.069Z,93.90
2023-03-19T20:16:30.114Z,94.10
2023-03-19T20:18:59.103Z,94.30
2023-03-19T20:21:29.984Z,94.60
2023-03-19T20:24:00.949Z,94.90
2023-03-19T20:26:33.044Z,95.20
2023-03-19T20:29:02.991Z,95.40
2023-03-19T20:31:34.357Z,95.50
2023-03-19T20:34:08.721Z,95.70
2023-03-19T20:36:39.887Z,95.80
2023-03-19T20:39:09.962Z,96.00
2023-03-19T20:41:38.882Z,96.30
2023-03-19T20:44:08.454Z,96.60
2023-03-19T20:46:37.465Z,97.20
2023-03-19T20:49:06.973Z,97.40
2023-03-19T20:51:35.070Z,97.70
2023-03-19T20:54:05.009Z,98.10
2023-03-19T20:56:38.105Z,98.50
2023-03-19T20:59:06.847Z,98.80
2023-03-19T21:01:37.097Z,99.20
2023-03-19T21:04:05.598Z,99.60
2023-03-19T21:06:51.780Z,99.90
2023-03-19T21:09:21.468Z,99.90
2023-03-19T21:11:49.368Z,99.90
2023-03-19T21:14:17.049Z,99.90
2023-03-19T21:16:45.299Z,99.90
2023-03-19T21:19:13.814Z,99.90
2023-03-19T21:21:43.951Z,99.90
2023-03-19T21:24:20.509Z,99.90
2023-03-19T21:26:48.901Z,99.90
2023-03-19T21:29:33.617Z,99.90
2023-03-19T21:32:02.459Z,99.90
2023-03-19T21:34:30.191Z,99.90
2023-03-19T21:36:58.289Z,99.90
2023-03-19T21:39:26.290Z,99.90
2023-03-19T21:41:54.440Z,99.90
2023-03-19T21:44:23.338Z,99.90
2023-03-19T21:46:51.487Z,99.90
2023-03-19T21:49:19.011Z,99.90
2023-03-19T21:51:47.096Z,99.90
2023-03-19T21:54:15.738Z,99.90
2023-03-19T21:56:45.590Z,99.90
2023-03-19T21:59:22.135Z,99.90
2023-03-19T22:01:49.429Z,99.90
2023-03-19T22:04:19.124Z,99.90
2023-03-19T22:06:46.858Z,99.90
2023-03-19T22:09:14.005Z,99.90
2023-03-19T22:11:46.068Z,99.90
2023-03-19T22:14:26.887Z,99.90
2023-03-19T22:16:56.221Z,99.90
2023-03-19T22:19:23.830Z,99.90
2023-03-19T22:21:51.064Z,99.90
2023-03-19T22:24:18.267Z,99.90
2023-03-19T22:26:49.629Z,99.90
2023-03-19T22:29:22.820Z,99.90
2023-03-19T22:31:52.027Z,99.90
2023-03-19T22:34:23.642Z,99.90
2023-03-19T22:36:51.410Z,99.90
2023-03-19T22:39:18.572Z,99.90
2023-03-19T22:41:48.270Z,99.90
2023-03-19T22:44:30.457Z,99.90
2023-03-19T22:47:00.774Z,99.90
2023-03-19T22:49:29.946Z,99.90
2023-03-19T22:51:58.294Z,99.90
2023-03-19T22:54:26.399Z,99.90
2023-03-19T22:56:53.516Z,99.90
2023-03-19T22:59:20.644Z,99.90
2023-03-19T23:01:48.541Z,99.90
2023-03-19T23:04:33.452Z,99.90
2023-03-19T23:07:01.455Z,99.90
2023-03-19T23:09:35.905Z,99.90
2023-03-19T23:12:04.215Z,99.90
2023-03-19T23:14:32.201Z,99.90
2023-03-19T23:17:14.574Z,99.90
2023-03-19T23:19:41.740Z,99.90
2023-03-19T23:22:16.462Z,99.90
2023-03-19T23:24:44.819Z,99.90
2023-03-19T23:27:24.991Z,99.90
2023-03-19T23:29:53.035Z,99.90
2023-03-19T23:32:20.701Z,99.90
2023-03-19T23:34:59.202Z,99.90
2023-03-19T23:37:28.828Z,99.90
2023-03-19T23:39:56.443Z,99.90
2023-03-19T23:42:32.818Z,99.90
2023-03-19T23:45:03.792Z,99.90
2023-03-19T23:47:31.385Z,99.90
2023-03-19T23:49:58.906Z,99.90
2023-03-19T23:52:26.293Z,99.90
2023-03-19T23:54:53.529Z,99.90
2023-03-19T23:57:23.305Z,99.90
2023-03-19T23:59:53.651Z,99.90
